Time;durP1;ratioP1;P1;durP2;ratioP2;P2;SDS_P1;SDS_P2;PMS_P1;PMS_P2;Temp;Humidity;BMP_temperature;BMP_pressure;BME280_temperature;BME280_humidity;BME280_pressure;Samples;Min_cycle;Max_cycle;Signal;HPM_P1;HPM_P2
2022/06/28 00:01:58;;;;;;;6.30;3.05;;;;;;;11.63;100.00;101950.53;4896706;29;20036;-87
2022/06/28 00:04:23;;;;;;;4.07;3.23;;;;;;;11.57;100.00;101946.91;4897714;29;20036;-87
2022/06/28 00:06:48;;;;;;;8.80;3.30;;;;;;;11.52;100.00;101946.81;4897188;29;20477;-88
2022/06/28 00:09:14;;;;;;;5.27;2.97;;;;;;;11.49;100.00;101940.06;4897342;29;20058;-87
2022/06/28 00:11:43;;;;;;;4.25;3.33;;;;;;;11.48;100.00;101949.16;4896566;29;20088;-87
2022/06/28 00:16:54;;;;;;;4.65;2.97;;;;;;;11.43;100.00;101940.19;4896175;29;20052;-87
2022/06/28 00:19:20;;;;;;;7.40;3.07;;;;;;;11.42;100.00;101949.28;4897086;29;20473;-87
2022/06/28 00:21:46;;;;;;;9.00;3.73;;;;;;;11.43;100.00;101948.25;4896245;29;20111;-87
2022/06/28 00:24:12;;;;;;;4.77;3.17;;;;;;;11.36;100.00;101932.28;4897426;29;20696;-87
2022/06/28 00:26:37;;;;;;;4.53;3.47;;;;;;;11.36;100.00;101938.44;4896797;29;20108;-87
2022/06/28 00:29:02;;;;;;;5.63;3.50;;;;;;;11.31;100.00;101943.72;4897104;29;20111;-87
2022/06/28 00:31:28;;;;;;;7.53;3.43;;;;;;;11.25;100.00;101944.66;4896485;29;20123;-87
2022/06/28 00:33:53;;;;;;;6.03;3.50;;;;;;;11.19;100.00;101942.88;4896948;29;20033;-87
2022/06/28 00:36:18;;;;;;;6.43;3.27;;;;;;;11.19;100.00;101946.41;4896602;29;20050;-87
2022/06/28 00:38:43;;;;;;;5.53;3.60;;;;;;;11.18;100.00;101954.66;4896726;29;20032;-87
2022/06/28 00:41:09;;;;;;;5.13;3.40;;;;;;;11.13;100.00;101951.91;4895901;29;20048;-87
2022/06/28 00:43:38;;;;;;;9.93;3.77;;;;;;;11.11;100.00;101956.69;4879453;29;20503;-87
2022/06/28 00:46:04;;;;;;;6.47;4.18;;;;;;;11.05;100.00;101948.50;4896820;29;20044;-87
2022/06/28 00:48:30;;;;;;;8.13;4.10;;;;;;;11.06;100.00;101960.03;4896581;29;20519;-87
2022/06/28 00:50:56;;;;;;;5.55;4.00;;;;;;;11.05;100.00;101961.91;4896054;29;20076;-87
2022/06/28 00:53:21;;;;;;;4.75;3.80;;;;;;;11.05;100.00;101961.09;4896311;29;20028;-87
2022/06/28 00:55:47;;;;;;;6.30;4.20;;;;;;;11.11;100.00;101960.16;4896376;29;20127;-87
2022/06/28 00:58:16;;;;;;;6.43;4.10;;;;;;;11.09;100.00;101961.44;4896349;29;20051;-87
2022/06/28 01:00:44;;;;;;;4.90;4.03;;;;;;;11.02;100.00;101956.22;4895720;29;20032;-87
2022/06/28 01:03:13;;;;;;;8.30;4.32;;;;;;;11.03;100.00;101961.31;4896160;29;20500;-86
2022/06/28 01:05:41;;;;;;;6.50;4.40;;;;;;;11.05;100.00;101966.44;4896241;29;20088;-87
2022/06/28 01:08:08;;;;;;;11.43;4.30;;;;;;;11.02;100.00;101957.00;4896113;29;20040;-86
2022/06/28 01:10:35;;;;;;;4.70;3.50;;;;;;;10.97;100.00;101964.94;4895966;29;20044;-87
2022/06/28 01:13:01;;;;;;;8.70;4.33;;;;;;;10.99;100.00;101965.50;4896230;29;20291;-87
2022/06/28 01:15:32;;;;;;;7.30;4.25;;;;;;;10.94;100.00;101962.72;4896136;29;20033;-86
2022/06/28 01:18:01;;;;;;;5.75;4.40;;;;;;;10.99;100.00;101962.84;4895944;29;20052;-86
2022/06/28 01:20:27;;;;;;;11.73;4.53;;;;;;;10.94;100.00;101960.06;4895625;29;20036;-87
2022/06/28 01:22:54;;;;;;;7.83;4.50;;;;;;;10.88;100.00;101966.34;4895571;29;20527;-87
2022/06/28 01:25:21;;;;;;;7.57;4.20;;;;;;;10.93;100.00;101969.16;4896031;29;20084;-86
2022/06/28 01:27:47;;;;;;;7.82;4.55;;;;;;;10.86;100.00;101965.75;4895665;29;20472;-87
2022/06/28 01:30:13;;;;;;;6.10;4.32;;;;;;;10.85;100.00;101961.44;4901331;23;20072;-86
2022/06/28 01:32:40;;;;;;;9.18;4.53;;;;;;;10.83;100.00;101975.06;4895939;29;20084;-87
2022/06/28 01:35:06;;;;;;;7.87;5.03;;;;;;;10.78;100.00;101966.91;4878309;29;20040;-86
2022/06/28 01:37:32;;;;;;;8.57;4.87;;;;;;;10.79;100.00;101971.22;4895491;29;20293;-87
2022/06/28 01:39:58;;;;;;;7.18;4.78;;;;;;;10.85;100.00;101981.03;4895824;29;20033;-87
2022/06/28 01:42:29;;;;;;;7.90;4.65;;;;;;;10.80;100.00;101978.22;4895338;29;20039;-87
2022/06/28 01:44:56;;;;;;;7.22;4.57;;;;;;;10.72;100.00;101968.66;4895725;29;20575;-87
2022/06/28 01:47:23;;;;;;;7.88;4.65;;;;;;;10.73;100.00;101982.84;4895522;29;20028;-87
2022/06/28 01:49:49;;;;;;;5.00;4.50;;;;;;;10.71;100.00;101977.75;4895597;29;20036;-87
2022/06/28 01:52:14;;;;;;;8.80;5.35;;;;;;;10.70;100.00;101992.19;4895350;29;20032;-87
2022/06/28 01:54:40;;;;;;;9.70;5.30;;;;;;;10.62;100.00;101964.91;4895799;29;20064;-86
2022/06/28 01:57:05;;;;;;;9.50;5.27;;;;;;;10.70;100.00;101991.34;4895551;29;20039;-87
2022/06/28 01:59:30;;;;;;;9.68;4.78;;;;;;;10.66;100.00;101991.00;4895477;29;20029;-87
2022/06/28 02:01:56;;;;;;;8.10;5.03;;;;;;;10.56;100.00;101988.88;4895114;29;20059;-87
2022/06/28 02:04:27;;;;;;;7.37;4.93;;;;;;;10.56;100.00;101983.53;4895181;29;20405;-86
2022/06/28 02:06:53;;;;;;;10.07;5.00;;;;;;;10.54;100.00;101993.66;4894719;29;20040;-86
2022/06/28 02:09:21;;;;;;;7.82;5.10;;;;;;;10.42;100.00;101974.84;4895060;29;20052;-87
2022/06/28 02:11:47;;;;;;;8.45;5.00;;;;;;;10.43;100.00;101986.41;4895209;29;20085;-87
2022/06/28 02:14:12;;;;;;;12.37;5.00;;;;;;;10.38;100.00;101984.41;4895632;29;20520;-87
2022/06/28 02:16:38;;;;;;;7.53;4.97;;;;;;;10.33;100.00;101981.56;4895468;29;20033;-87
2022/06/28 02:19:03;;;;;;;7.97;4.75;;;;;;;10.30;100.00;101992.72;4895256;29;20437;-86
2022/06/28 02:21:35;;;;;;;9.13;4.67;;;;;;;10.26;100.00;101997.72;4894914;29;20044;-87
2022/06/28 02:24:01;;;;;;;7.57;4.80;;;;;;;10.11;100.00;101984.72;4895474;29;20273;-87
2022/06/28 02:26:26;;;;;;;6.25;5.10;;;;;;;10.18;100.00;101999.91;4895405;29;20040;-87
2022/06/28 02:28:51;;;;;;;10.00;4.50;;;;;;;10.19;100.00;101999.66;4895389;29;20036;-86
2022/06/28 02:31:16;;;;;;;5.77;4.77;;;;;;;10.12;100.00;101999.75;4894922;29;20044;-87
2022/06/28 02:33:42;;;;;;;8.57;4.30;;;;;;;10.09;100.00;102002.09;4895260;29;20465;-87
2022/06/28 02:41:37;;;;;;;5.67;4.53;;;;;;;9.96;100.00;102011.91;4898207;29;20272;-87
2022/06/28 02:44:02;;;;;;;8.57;4.53;;;;;;;9.92;100.00;102012.56;4881672;29;20393;-87
2022/06/28 02:46:28;;;;;;;10.07;5.03;;;;;;;9.96;100.00;102024.47;4898952;29;20543;-86
2022/06/28 02:48:53;;;;;;;6.63;4.40;;;;;;;9.85;100.00;102021.53;4898545;29;20060;-87
2022/06/28 02:51:20;;;;;;;8.20;4.63;;;;;;;9.82;100.00;102023.81;4898308;29;20032;-87
2022/06/28 02:53:45;;;;;;;8.32;4.72;;;;;;;9.83;100.00;102028.13;4898552;29;20037;-87
2022/06/28 02:56:10;;;;;;;7.17;4.27;;;;;;;9.87;100.00;102031.16;4898500;29;20117;-87
2022/06/28 02:58:36;;;;;;;10.73;4.80;;;;;;;9.81;100.00;102033.72;4898394;29;20100;-86
2022/06/28 03:01:01;;;;;;;8.47;4.23;;;;;;;9.75;100.00;102039.94;4898185;29;20104;-87
2022/06/28 03:03:26;;;;;;;8.63;4.40;;;;;;;9.69;100.00;102038.16;4898285;29;20025;-86
2022/06/28 03:05:52;;;;;;;5.50;4.03;;;;;;;9.69;100.00;102040.81;4898367;29;20441;-86
2022/06/28 03:08:17;;;;;;;6.23;4.60;;;;;;;9.66;100.00;102046.66;4898414;29;20030;-86
2022/06/28 03:10:43;;;;;;;6.03;3.97;;;;;;;9.60;100.00;102044.84;4897982;29;20508;-87
2022/06/28 03:13:08;;;;;;;7.25;4.30;;;;;;;9.58;100.00;102045.06;4898351;29;20036;-86
2022/06/28 03:15:33;;;;;;;7.70;4.07;;;;;;;9.56;100.00;102055.19;4898101;29;20119;-87
2022/06/28 03:17:59;;;;;;;9.37;4.60;;;;;;;9.57;100.00;102053.31;4898220;29;20029;-87
2022/06/28 03:20:24;;;;;;;8.80;4.85;;;;;;;9.54;100.00;102058.06;4897723;29;20076;-87
2022/06/28 03:22:50;;;;;;;8.30;4.13;;;;;;;9.59;100.00;102068.09;4898087;29;20036;-86
2022/06/28 03:25:15;;;;;;;10.30;4.43;;;;;;;9.60;100.00;102063.56;4897726;29;20029;-87
2022/06/28 03:27:40;;;;;;;7.00;4.43;;;;;;;9.63;100.00;102068.50;4897796;29;20108;-87
2022/06/28 03:30:06;;;;;;;8.47;4.60;;;;;;;9.59;100.00;102067.28;4902825;23;20053;-86
2022/06/28 03:32:32;;;;;;;8.07;4.32;;;;;;;9.63;100.00;102063.13;4897470;29;20047;-87
2022/06/28 03:34:57;;;;;;;9.63;4.30;;;;;;;9.60;100.00;102068.94;4897716;29;20032;-86
2022/06/28 03:37:23;;;;;;;7.17;4.47;;;;;;;9.56;100.00;102057.84;4897567;29;20111;-87
2022/06/28 03:39:48;;;;;;;7.17;4.27;;;;;;;9.54;100.00;102063.41;4897795;29;20493;-87
2022/06/28 03:42:15;;;;;;;7.43;3.83;;;;;;;9.39;100.00;102049.56;4897351;29;20036;-87
2022/06/28 03:44:40;;;;;;;8.40;4.15;;;;;;;9.54;100.00;102075.97;4897566;29;20029;-87
2022/06/28 03:47:08;;;;;;;8.80;4.20;;;;;;;9.49;100.00;102073.13;4897768;29;20397;-87
2022/06/28 03:49:38;;;;;;;9.27;4.53;;;;;;;9.36;100.00;102060.69;4903009;23;20032;-87
2022/06/28 03:52:04;;;;;;;7.18;4.20;;;;;;;9.26;100.00;102050.50;4896593;29;20032;-87
2022/06/28 03:54:29;;;;;;;7.00;4.10;;;;;;;9.45;100.00;102069.25;4897307;29;20101;-87
2022/06/28 03:56:55;;;;;;;7.30;3.70;;;;;;;9.40;100.00;102067.25;4897409;29;20037;-86
2022/06/28 03:59:20;;;;;;;7.77;4.33;;;;;;;9.46;100.00;102077.09;4897313;29;20043;-87
2022/06/28 04:01:45;;;;;;;6.13;3.90;;;;;;;9.42;100.00;102073.19;4897019;29;20033;-87
2022/06/28 04:04:12;;;;;;;5.20;4.10;;;;;;;9.47;100.00;102080.56;4880428;29;20045;-86
2022/06/28 04:06:37;;;;;;;6.17;3.87;;;;;;;9.52;100.00;102076.19;4897456;29;20032;-86
2022/06/28 04:09:02;;;;;;;8.95;4.53;;;;;;;9.50;100.00;102075.59;4897194;29;20473;-87
2022/06/28 04:11:28;;;;;;;7.23;4.17;;;;;;;9.49;100.00;102068.63;4896656;29;20072;-86
2022/06/28 04:13:54;;;;;;;9.63;4.10;;;;;;;9.57;100.00;102072.03;4897147;29;20552;-86
2022/06/28 04:16:21;;;;;;;5.53;3.83;;;;;;;9.61;100.00;102075.91;4897116;29;20029;-86
2022/06/28 04:18:48;;;;;;;7.95;4.00;;;;;;;9.60;100.00;102069.72;4897202;29;20064;-86
2022/06/28 04:21:20;;;;;;;6.03;3.77;;;;;;;9.64;100.00;102072.81;4896600;29;20040;-87
2022/06/28 04:23:45;;;;;;;11.17;4.53;;;;;;;9.63;100.00;102079.19;4896920;29;20304;-86
2022/06/28 04:26:11;;;;;;;6.38;4.03;;;;;;;9.79;100.00;102075.94;4896823;29;20812;-86
2022/06/28 04:28:37;;;;;;;9.18;4.40;;;;;;;10.01;100.00;102080.88;4896899;29;20028;-86
2022/06/28 04:31:03;;;;;;;9.83;4.07;;;;;;;9.99;100.00;102073.03;4896599;29;20035;-86
2022/06/28 04:33:29;;;;;;;7.40;3.35;;;;;;;10.02;100.00;102085.19;4897011;29;20485;-86
2022/06/28 04:35:55;;;;;;;5.30;3.43;;;;;;;10.07;100.00;102079.16;4897051;29;20028;-86
2022/06/28 04:38:20;;;;;;;8.25;3.22;;;;;;;10.06;100.00;102088.22;4896656;29;20029;-86
2022/06/28 04:40:46;;;;;;;10.80;3.80;;;;;;;10.11;100.00;102089.19;4896193;29;20500;-86
2022/06/28 04:43:11;;;;;;;6.43;3.00;;;;;;;10.13;100.00;102079.06;4897017;29;20041;-86
2022/06/28 04:45:36;;;;;;;10.63;3.47;;;;;;;10.28;100.00;102075.19;4896800;29;20032;-86
2022/06/28 04:48:02;;;;;;;7.33;3.33;;;;;;;10.81;100.00;102083.59;4897011;29;20494;-86
2022/06/28 04:50:27;;;;;;;7.00;3.43;;;;;;;11.31;100.00;102077.03;4896181;29;20737;-87
2022/06/28 04:52:53;;;;;;;8.87;3.67;;;;;;;12.75;100.00;102091.88;4896736;29;20428;-86
2022/06/28 04:55:19;;;;;;;6.37;3.10;;;;;;;14.42;100.00;102099.44;4896619;29;20389;-86
2022/06/28 04:57:44;;;;;;;6.30;2.67;;;;;;;15.83;88.90;102097.63;4896940;29;20293;-87
2022/06/28 05:00:11;;;;;;;3.92;1.88;;;;;;;16.86;80.64;102097.16;4896403;29;20103;-86
2022/06/28 05:02:42;;;;;;;8.73;2.37;;;;;;;17.67;77.11;102111.78;4895985;29;20028;-87
2022/06/28 05:05:09;;;;;;;6.17;1.90;;;;;;;18.52;73.94;102114.69;4896458;29;20277;-86
2022/06/28 05:07:35;;;;;;;9.95;2.00;;;;;;;19.11;71.58;102112.16;4896162;29;20048;-86
2022/06/28 05:10:02;;;;;;;7.45;1.98;;;;;;;19.71;67.32;102111.03;4896469;29;20469;-87
2022/06/28 05:12:27;;;;;;;7.07;2.00;;;;;;;20.21;65.29;102118.88;4896326;29;20107;-87
2022/06/28 05:14:52;;;;;;;9.33;1.90;;;;;;;20.42;62.75;102114.00;4896573;29;20061;-87
2022/06/28 05:17:18;;;;;;;5.20;1.60;;;;;;;20.71;62.95;102123.09;4896228;29;20430;-87
2022/06/28 05:19:44;;;;;;;10.00;1.70;;;;;;;21.00;61.69;102117.47;4896123;29;20077;-87
2022/06/28 05:22:09;;;;;;;8.47;1.63;;;;;;;21.40;60.18;102114.38;4895823;29;20027;-88
2022/06/28 05:24:43;;;;;;;6.35;1.80;;;;;;;21.67;62.71;102112.00;4896065;29;20046;-88
2022/06/28 05:27:09;;;;;;;5.40;1.60;;;;;;;21.86;57.86;102118.16;4896410;29;20027;-88
2022/06/28 05:29:34;;;;;;;8.43;1.50;;;;;;;21.97;56.45;102102.38;4879379;29;20020;-88
2022/06/28 05:31:59;;;;;;;6.00;1.90;;;;;;;22.13;55.60;102102.84;4896191;29;20080;-88
2022/06/28 05:34:25;;;;;;;6.17;1.63;;;;;;;22.36;55.50;102105.66;4896475;29;20060;-88
2022/06/28 05:36:51;;;;;;;5.97;1.50;;;;;;;22.60;55.86;102115.53;4896404;29;20053;-88
2022/06/28 05:39:17;;;;;;;9.50;1.60;;;;;;;22.29;53.73;102103.34;4896331;29;20088;-88
2022/06/28 05:41:42;;;;;;;7.72;1.88;;;;;;;21.96;55.26;102106.22;4895523;29;20652;-88
2022/06/28 05:44:09;;;;;;;10.00;1.57;;;;;;;22.09;52.64;102099.16;4896858;29;20040;-88
2022/06/28 05:46:35;;;;;;;3.13;1.58;;;;;;;22.18;54.85;102099.22;4896077;29;20539;-88
2022/06/28 05:49:00;;;;;;;7.23;1.57;;;;;;;22.13;54.38;102093.88;4896084;29;20112;-88
2022/06/28 05:51:26;;;;;;;10.05;1.40;;;;;;;22.26;56.06;102103.94;4878654;29;20047;-88
2022/06/28 05:53:51;;;;;;;5.77;1.60;;;;;;;22.11;54.94;102091.44;4896140;29;20062;-88
2022/06/28 05:56:16;;;;;;;5.13;1.38;;;;;;;22.12;54.84;102084.06;4895986;29;20036;-88
2022/06/28 05:58:42;;;;;;;6.87;1.60;;;;;;;22.23;55.10;102080.81;4896180;29;20040;-88
2022/06/28 06:01:07;;;;;;;7.23;1.80;;;;;;;22.09;55.86;102080.84;4895595;29;20524;-88
2022/06/28 06:03:33;;;;;;;10.33;1.70;;;;;;;21.78;57.75;102081.50;4896109;29;20508;-88
2022/06/28 06:05:59;;;;;;;6.25;1.90;;;;;;;21.51;57.85;102085.00;4896003;29;20115;-88
2022/06/28 06:08:24;;;;;;;9.40;2.03;;;;;;;21.17;59.77;102088.88;4896390;29;20156;-88
2022/06/28 06:10:49;;;;;;;8.65;1.83;;;;;;;20.78;59.53;102090.09;4895531;29;20370;-88
2022/06/28 06:13:14;;;;;;;7.77;1.80;;;;;;;20.51;59.96;102091.53;4896482;29;20048;-88
2022/06/28 06:15:40;;;;;;;12.83;2.23;;;;;;;20.31;62.35;102098.09;4899882;29;20065;-88
2022/06/28 06:18:05;;;;;;;6.17;1.60;;;;;;;20.04;63.59;102094.91;4899759;29;20119;-88
2022/06/28 06:20:30;;;;;;;7.57;1.90;;;;;;;19.91;64.34;102101.03;4899113;29;20039;-88
2022/06/28 06:22:56;;;;;;;9.30;1.93;;;;;;;19.56;65.49;102092.16;4899282;29;20040;-88
2022/06/28 06:25:21;;;;;;;11.02;1.95;;;;;;;19.32;65.31;102095.66;4899715;29;20111;-88
2022/06/28 06:27:46;;;;;;;6.33;1.50;;;;;;;19.07;68.00;102102.94;4899433;29;20031;-88
2022/06/28 06:30:13;;;;;;;7.27;1.70;;;;;;;18.65;66.11;102093.44;4899159;29;20024;-88
2022/06/28 06:32:38;;;;;;;5.18;1.50;;;;;;;18.42;65.54;102101.19;4899492;29;20024;-88
2022/06/28 06:35:04;;;;;;;8.23;2.00;;;;;;;18.26;69.71;102106.69;4899510;29;20550;-88
2022/06/28 06:37:32;;;;;;;7.68;2.17;;;;;;;18.07;68.12;102101.09;4899167;29;20028;-88
2022/06/28 06:39:58;;;;;;;10.50;2.33;;;;;;;17.89;69.34;102109.81;4899605;29;20052;-88
2022/06/28 06:42:26;;;;;;;7.67;1.77;;;;;;;17.76;69.14;102116.63;4899567;29;20485;-88
2022/06/28 06:44:52;;;;;;;11.90;1.80;;;;;;;17.80;68.43;102106.84;4899554;29;20061;-88
2022/06/28 06:47:17;;;;;;;9.23;1.60;;;;;;;17.68;68.30;102102.56;4898964;29;20580;-88
2022/06/28 06:49:43;;;;;;;10.50;1.70;;;;;;;17.64;67.67;102114.19;4898885;29;20128;-87
2022/06/28 06:52:08;;;;;;;9.77;1.83;;;;;;;17.61;70.33;102114.78;4898730;29;20036;-88
2022/06/28 06:54:33;;;;;;;9.63;1.83;;;;;;;17.62;71.55;102114.47;4899435;29;20031;-88
2022/06/28 06:56:58;;;;;;;6.13;1.70;;;;;;;17.53;67.42;102107.97;4899075;29;20029;-87
2022/06/28 06:59:24;;;;;;;10.20;2.03;;;;;;;17.53;66.65;102108.81;4899046;29;20025;-88
2022/06/28 07:01:58;;;;;;;8.18;1.88;;;;;;;17.38;70.31;102122.38;4898763;29;20512;-88
2022/06/28 07:04:23;;;;;;;8.48;1.60;;;;;;;17.49;71.56;102112.34;4898801;29;20702;-88
2022/06/28 07:06:49;;;;;;;6.07;1.80;;;;;;;17.62;70.77;102121.81;4899171;29;20184;-88
2022/06/28 07:09:15;;;;;;;10.23;1.90;;;;;;;17.71;70.42;102120.94;4898771;29;20028;-88
2022/06/28 07:11:40;;;;;;;7.47;1.47;;;;;;;17.78;71.00;102130.72;4898120;29;20108;-89
2022/06/28 07:14:08;;;;;;;8.60;1.90;;;;;;;17.53;65.38;102116.94;4897955;29;20044;-88
2022/06/28 07:16:38;;;;;;;7.63;1.77;;;;;;;17.61;67.31;102128.31;4898603;29;20041;-88
2022/06/28 07:19:03;;;;;;;11.93;1.80;;;;;;;17.67;64.53;102122.63;4881971;29;20321;-88
2022/06/28 07:21:28;;;;;;;9.73;1.50;;;;;;;17.75;61.12;102115.00;4898671;29;20119;-88
2022/06/28 07:23:54;;;;;;;7.90;1.80;;;;;;;17.76;62.78;102117.44;4898873;29;20038;-88
2022/06/28 07:26:20;;;;;;;12.50;2.03;;;;;;;17.86;65.92;102117.41;4898371;29;20029;-88
2022/06/28 07:28:46;;;;;;;14.07;2.10;;;;;;;18.00;63.87;102124.97;4898547;29;20031;-88
2022/06/28 07:31:15;;;;;;;10.07;2.00;;;;;;;17.85;64.25;102115.78;4881426;29;20029;-88
2022/06/28 07:33:41;;;;;;;10.70;2.30;;;;;;;17.98;66.49;102122.53;4898855;29;20104;-88
2022/06/28 07:36:06;;;;;;;5.40;1.33;;;;;;;18.17;65.50;102127.34;4898992;29;20281;-88
2022/06/28 07:38:38;;;;;;;10.60;2.22;;;;;;;18.29;63.62;102114.28;4899602;29;20036;-88
2022/06/28 07:41:03;;;;;;;8.13;1.70;;;;;;;18.42;63.42;102103.91;4921119;23;20081;-88
2022/06/28 07:43:28;;;;;;;10.27;1.70;;;;;;;18.62;64.08;102117.34;4899535;29;20434;-88
2022/06/28 07:45:54;;;;;;;11.90;1.93;;;;;;;18.89;64.77;102118.81;4898983;29;20071;-89
2022/06/28 07:48:20;;;;;;;11.73;2.13;;;;;;;19.02;62.26;102116.56;4898734;29;20032;-88
2022/06/28 07:53:34;;;;;;;7.80;1.60;;;;;;;18.98;59.41;102118.25;4900328;29;20079;-88
2022/06/28 07:56:00;;;;;;;8.23;1.80;;;;;;;18.99;59.99;102111.72;4900167;29;20032;-88
2022/06/28 07:58:25;;;;;;;6.57;1.70;;;;;;;19.06;59.76;102115.72;4900683;29;20553;-88
2022/06/28 08:00:50;;;;;;;3.47;1.23;;;;;;;19.18;58.18;102114.53;4899660;29;20025;-87
2022/06/28 08:03:16;;;;;;;7.43;1.57;;;;;;;19.26;59.91;102113.09;4900039;29;20554;-88
2022/06/28 08:05:41;;;;;;;7.73;1.40;;;;;;;19.26;56.70;102113.09;4899688;29;20480;-88
2022/06/28 08:08:07;;;;;;;8.65;1.45;;;;;;;19.16;58.71;102108.56;4901221;29;20028;-88
2022/06/28 08:10:33;;;;;;;6.67;1.10;;;;;;;19.37;56.45;102111.91;4900149;29;20032;-88
2022/06/28 08:12:58;;;;;;;4.25;1.20;;;;;;;19.33;55.80;102103.50;4899645;29;20037;-88
2022/06/28 08:15:23;;;;;;;3.67;1.17;;;;;;;19.48;57.12;102099.03;4900682;29;20032;-87
2022/06/28 08:17:50;;;;;;;8.30;1.20;;;;;;;19.58;54.96;102098.09;4900208;29;20028;-88
2022/06/28 08:20:15;;;;;;;5.10;1.40;;;;;;;19.73;55.94;102113.44;4900471;29;20553;-86
2022/06/28 08:22:41;;;;;;;5.23;1.07;;;;;;;19.82;56.65;102104.38;4900302;29;20185;-87
2022/06/28 08:25:07;;;;;;;4.33;0.90;;;;;;;19.95;53.60;102102.06;4900995;29;20064;-86
2022/06/28 08:27:32;;;;;;;2.80;0.82;;;;;;;20.15;51.51;102095.56;4900952;29;20033;-87
2022/06/28 08:29:57;;;;;;;5.20;1.00;;;;;;;20.30;48.42;102091.03;4900261;29;20025;-86
2022/06/28 08:32:23;;;;;;;4.93;1.40;;;;;;;20.38;49.08;102079.47;4900958;29;20308;-87
2022/06/28 08:34:49;;;;;;;4.17;1.20;;;;;;;20.53;50.87;102084.72;4883708;29;20020;-87
2022/06/28 08:37:15;;;;;;;4.40;1.17;;;;;;;20.71;50.77;102079.53;4900761;29;20024;-88
2022/06/28 08:39:40;;;;;;;8.18;1.48;;;;;;;20.75;48.65;102075.09;4883306;29;20033;-87
2022/06/28 08:42:06;;;;;;;6.10;1.30;;;;;;;20.94;50.92;102087.91;4900254;29;20037;-88
2022/06/28 08:44:34;;;;;;;3.67;1.10;;;;;;;20.79;50.05;102083.53;4900778;29;20025;-87
2022/06/28 08:47:04;;;;;;;3.75;1.05;;;;;;;21.08;47.93;102082.50;4900177;29;20045;-87
2022/06/28 08:49:41;;;;;;;5.70;1.30;;;;;;;21.21;48.83;102076.25;4899803;29;20084;-88
2022/06/28 08:52:08;;;;;;;3.10;0.90;;;;;;;21.21;45.44;102073.53;4900635;29;20154;-88
2022/06/28 08:54:34;;;;;;;3.40;1.00;;;;;;;21.35;46.15;102061.84;4901651;29;20068;-87
2022/06/28 08:57:00;;;;;;;2.92;0.80;;;;;;;21.34;46.24;102069.22;4902891;29;20036;-87
2022/06/28 08:59:26;;;;;;;4.30;1.40;;;;;;;21.52;46.59;102078.44;4901884;29;20024;-88
2022/06/28 09:01:57;;;;;;;2.65;1.02;;;;;;;21.45;45.62;102075.28;4901393;29;20083;-88
2022/06/28 09:04:31;;;;;;;3.45;0.90;;;;;;;21.51;46.79;102079.53;4901026;29;20044;-87
2022/06/28 09:06:56;;;;;;;5.68;1.15;;;;;;;21.71;47.20;102067.44;4901938;29;20461;-88
2022/06/28 09:09:22;;;;;;;4.93;1.03;;;;;;;21.84;45.36;102073.19;4901262;29;20084;-88
2022/06/28 09:11:52;;;;;;;7.90;1.20;;;;;;;21.98;49.39;102078.63;4900875;29;20104;-87
2022/06/28 09:14:29;;;;;;;4.18;1.13;;;;;;;21.89;48.84;102063.00;4900172;29;20203;-89
2022/06/28 09:16:55;;;;;;;5.75;1.20;;;;;;;22.02;46.78;102061.34;4898940;29;20480;-87
2022/06/28 09:19:43;;;;;;;4.25;1.10;;;;;;;22.00;48.28;102065.50;4900468;29;20433;-87
2022/06/28 09:22:49;;;;;;;2.10;0.80;;;;;;;22.16;48.00;102049.59;4900115;29;20454;-88
2022/06/28 09:25:26;;;;;;;2.63;0.80;;;;;;;22.27;46.04;102058.38;4900751;29;20111;-88
2022/06/28 09:28:00;;;;;;;4.05;0.93;;;;;;;22.54;47.49;102055.56;4901030;29;20084;-88
2022/06/28 09:30:31;;;;;;;2.95;1.00;;;;;;;22.69;45.95;102050.81;4900438;29;20024;-88
2022/06/28 09:32:58;;;;;;;4.97;0.82;;;;;;;22.82;46.75;102044.47;4901787;29;20072;-88
2022/06/28 09:35:24;;;;;;;5.23;1.20;;;;;;;22.41;46.93;102045.47;4899403;29;20031;-88
2022/06/28 09:37:50;;;;;;;4.00;1.20;;;;;;;22.57;44.59;102051.38;4900654;29;20280;-88
2022/06/28 09:40:24;;;;;;;4.10;1.05;;;;;;;22.54;44.12;102039.16;4901563;29;20031;-88
2022/06/28 09:43:14;;;;;;;4.40;1.17;;;;;;;22.62;46.10;102032.16;4901763;29;20509;-88
2022/06/28 09:45:42;;;;;;;4.80;1.10;;;;;;;22.83;45.22;102043.34;4901847;29;20037;-88
2022/06/28 09:48:08;;;;;;;4.07;1.33;;;;;;;22.91;44.72;102036.34;4901796;29;20021;-88
2022/06/28 09:50:35;;;;;;;3.97;1.15;;;;;;;23.05;46.01;102030.00;4901922;29;20036;-88
2022/06/28 09:53:16;;;;;;;4.95;1.10;;;;;;;23.13;46.74;102027.28;4901525;29;20032;-88
2022/06/28 09:55:42;;;;;;;4.90;0.90;;;;;;;22.99;44.70;102008.25;4901090;29;20032;-88
2022/06/28 09:58:08;;;;;;;4.27;1.10;;;;;;;23.24;45.74;102025.13;4901321;29;20296;-88
2022/06/28 10:00:37;;;;;;;4.05;1.15;;;;;;;23.33;44.52;102024.34;4901734;29;20044;-88
2022/06/28 10:03:03;;;;;;;4.63;1.60;;;;;;;23.41;44.52;102013.41;4884886;29;20029;-88
2022/06/28 10:05:32;;;;;;;4.93;1.17;;;;;;;23.55;43.93;102018.78;4901535;29;20506;-88
2022/06/28 10:07:58;;;;;;;3.70;1.00;;;;;;;23.82;45.03;102021.56;4902239;29;20541;-89
2022/06/28 10:10:25;;;;;;;3.90;1.05;;;;;;;23.85;45.11;102020.94;4901851;29;20040;-88
2022/06/28 10:15:40;;;;;;;6.33;1.30;;;;;;;23.90;43.67;102012.56;4903911;29;20632;-88
2022/06/28 10:18:20;;;;;;;3.95;1.23;;;;;;;24.04;42.94;102017.91;4903297;29;20076;-88
2022/06/28 10:20:46;;;;;;;5.13;1.30;;;;;;;24.13;41.64;102017.91;4902492;29;20035;-89
2022/06/28 10:23:22;;;;;;;4.18;1.10;;;;;;;24.04;42.43;102018.72;4902548;29;20041;-89
2022/06/28 10:26:08;;;;;;;3.90;1.20;;;;;;;24.21;45.58;102014.38;4903352;29;20362;-88
2022/06/28 10:28:37;;;;;;;4.35;1.08;;;;;;;24.18;42.98;102004.06;4901468;29;20052;-90
2022/06/28 10:31:20;;;;;;;3.30;1.25;;;;;;;24.32;43.93;102003.91;4885911;29;20029;-89
2022/06/28 10:33:47;;;;;;;3.00;1.23;;;;;;;24.34;42.56;101996.97;4902686;29;20055;-89
2022/06/28 10:36:15;;;;;;;5.72;1.40;;;;;;;24.49;42.32;101989.34;4902261;29;20033;-89
2022/06/28 10:38:59;;;;;;;4.97;1.27;;;;;;;24.75;44.71;101988.53;4902053;29;20197;-89
2022/06/28 10:41:42;;;;;;;2.60;1.30;;;;;;;24.90;44.30;101981.72;4901648;29;20292;-89
2022/06/28 10:44:15;;;;;;;2.33;1.23;;;;;;;24.88;40.32;101976.56;4903353;29;20033;-89
2022/06/28 10:46:41;;;;;;;3.85;1.42;;;;;;;25.08;40.19;101975.03;4902786;29;20036;-89
2022/06/28 10:49:09;;;;;;;3.45;1.23;;;;;;;25.22;39.79;101974.78;4903396;29;20090;-89
2022/06/28 10:51:37;;;;;;;5.20;1.48;;;;;;;25.41;40.56;101976.28;4904191;29;20036;-89
2022/06/28 10:54:16;;;;;;;3.67;1.20;;;;;;;25.50;40.82;101976.25;4903207;29;20039;-90
2022/06/28 10:56:43;;;;;;;3.22;1.17;;;;;;;25.64;40.51;101976.00;4902940;29;20025;-89
2022/06/28 10:59:19;;;;;;;4.10;1.13;;;;;;;25.42;39.76;101953.25;4903167;29;20024;-89
2022/06/28 11:01:50;;;;;;;2.50;1.27;;;;;;;25.68;37.41;101969.53;4908019;29;20039;-90
2022/06/28 11:04:18;;;;;;;4.40;1.20;;;;;;;25.82;40.12;101965.72;4909476;29;20076;-90
2022/06/28 11:06:46;;;;;;;3.07;1.40;;;;;;;25.97;39.11;101965.13;4892329;29;20289;-89
2022/06/28 11:09:35;;;;;;;3.70;1.20;;;;;;;26.31;39.75;101951.41;4910455;29;20048;-90
2022/06/28 11:12:12;;;;;;;5.45;1.30;;;;;;;25.93;41.06;101958.69;4909253;29;20281;-90
2022/06/28 11:14:59;;;;;;;3.45;1.27;;;;;;;26.37;40.99;101949.25;4913116;29;20052;-89
2022/06/28 11:17:27;;;;;;;7.18;1.80;;;;;;;26.65;40.15;101943.94;4917147;29;20106;-90
2022/06/28 11:20:01;;;;;;;6.20;1.50;;;;;;;26.69;38.38;101939.34;4920575;29;20041;-90
2022/06/28 11:22:28;;;;;;;8.15;2.05;;;;;;;26.74;38.61;101938.34;4921874;29;20016;-90
2022/06/28 11:25:00;;;;;;;3.50;1.23;;;;;;;26.36;36.37;101937.47;4913436;29;20477;-89
2022/06/28 11:27:26;;;;;;;3.75;1.17;;;;;;;26.32;38.46;101933.78;4917089;29;20020;-91
2022/06/28 11:30:04;;;;;;;5.97;0.97;;;;;;;26.72;36.58;101933.16;4922516;29;20012;-90
2022/06/28 11:32:36;;;;;;;4.80;1.40;;;;;;;26.37;37.56;101932.78;4922246;29;20281;-91
2022/06/28 11:35:13;;;;;;;3.78;1.40;;;;;;;26.71;36.94;101926.06;4922287;28;20025;-90
2022/06/28 11:37:56;;;;;;;2.63;0.98;;;;;;;26.75;39.47;101929.72;4906149;29;20036;-90